Terminal Aerodrome Forecast
Issued by NWS Cleveland, OH

Home | Current Version | Previous Version | Graphics & Text | Print | Product List | Glossary On
Versions: 1 2 3 4 5 6 7 8 9 10 11 12 13
000
FTUS41 KCLE 301139
TAFERI
TAF
KERI 301139Z 3012/3112 18004KT P6SM VCSH BKN050 OVC100
     FM301600 27008KT P6SM SCT050 BKN150
     FM310100 19006KT P6SM FEW150 SCT250=

USA.gov is the U.S. government's official web portal to all federal, state and local government web resources and services.